Portada
METAR-TAF:

METAR-TAF

Aeroports :

Curtis L. Brown Jr. Field

Elizabethtown, Carolina del Nord, Estats Units d'Amèrica

latitud: 34-36N, longitud: 078-35W, altitud: 40 m

Observació

L'informe es va fer fa 23 minuts, a les 13:35 UTC
Vent calma
Temperatura 20°C
Humitat 94%
Pressió 1018 hPa
Visibilitat: 16.1 km
Cel clar

METAR: KEYF 241335Z AUTO 00000KT 10SM CLR 20/19 A3006 RMK AO2 T02030189

Hora: 09:58 (13:58 UTC)


TAF: manca

Observacions i pronòstics meteorològics de més de 4000 aeroports (METAR i TAF).

Les estacions disponibles són els punts grocs i vermells al mapa.

Posi el ratolí al punt desitjat per veure el nom de l'estació.

Feu clic per veure les observacions i els pronòstics meteorològics.

Per canviar el mapa: feu clic els botons verds amb una creu de color negre per apropar; al botó verd amb un guió per allunyar la imatge; o en les fletxes verdes per a mapes adjacents.


METAR-TAF: